首页
METAR-TAF:

METAR-TAF

机场 :

高知機場

高知, 日本

纬度: 33-32N, 经度: 133-40E, 海拔: 7米

当前天气观测

该预报发布于1小时和10分钟前的17:00 UTC
风速4节,风向
温度 26°C
湿度 94%
气压 1009 hPa
能见度10公里或以上
少量云层高于17000英尺

METAR: RJOK 241700Z AUTO 35004KT 9999 FEW170 //////CB 26/25 Q1009

时间: 03:10 (18:10 UTC)

预报

该预报发布于1小时和5分钟前的17:05 UTC
预报有效从24日的 18点(UTC)到 26日的 00点(UTC)
风速5节,风向
能见度10公里或以上
少量云层高于1500英尺
散云层高于3000英尺
成为
从 24日的 23点(UTC)到 25日的 01点(UTC)
风速6节,风向南转南东
短暂存在
从 25日的 03点(UTC)到 25日的 06点(UTC)
少量云层高于800英尺
散云层高于1500英尺
少量云层高于2000英尺, 积雨云.
多云层高于3500英尺
雷暴, 小雨
短暂存在
从 25日的 06点(UTC)到 25日的 12点(UTC)
能見度: 4000
少量云层高于500英尺
散云层高于1000英尺
少量云层高于2000英尺, 积雨云.
多云层高于2500英尺
雷暴, 雨, 轻雾
成为
从 25日的 12点(UTC)到 25日的 15点(UTC)
风速4节,风向
短暂存在
从 25日的 12点(UTC)到 25日的 21点(UTC)
能見度: 4000
少量云层高于300英尺
多云层高于800英尺
多云层高于1500英尺
小阵雨, 轻雾,

TAF: RJOK 241705Z 2418/2600 35005KT 9999 FEW015 SCT030 BECMG 2423/2501 16006KT TEMPO 2503/2506 -TSRA FEW008 SCT015 FEW020CB BKN035 TEMPO 2506/2512 4000 TSRA BR FEW005 SCT010 FEW020CB BKN025 BECMG 2512/2515 35004KT TEMPO 2512/2521 4000 -SHRA BR FEW003 BKN008 BKN015

超过4000个机场的气象观测和天气预报(METAR&TAF报告)。

可查询的气象台以黄色和红色小点在地图上表示。

将鼠标移到小点上方,可查看气象台名称。

然后点击查看天气观测和预报。

如需切换地图:点击带黑十字的绿色按钮放大地图;点击带横线的绿色按钮缩小地图;或者点击绿色箭头查看邻近地区的地图。


METAR-TAF: